Time;durP1;ratioP1;P1;durP2;ratioP2;P2;SDS_P1;SDS_P2;PMS_P1;PMS_P2;Temp;Humidity;BMP_temperature;BMP_pressure;BME280_temperature;BME280_humidity;BME280_pressure;Samples;Min_cycle;Max_cycle;Signal;HPM_P1;HPM_P2
2024/03/13 00:02:11;;;;;;;5.27;4.33;;;9.10;1.00;;;;;;5099557;28;20422;-42
2024/03/13 00:04:46;;;;;;;5.10;4.60;;;9.10;1.00;;;;;;5097846;28;20446;-40
2024/03/13 00:07:12;;;;;;;5.20;4.27;;;9.00;1.00;;;;;;5099645;28;20476;-41
2024/03/13 00:09:50;;;;;;;5.40;4.30;;;9.00;1.00;;;;;;5099477;28;20525;-41
2024/03/13 00:12:16;;;;;;;4.47;3.90;;;9.00;1.00;;;;;;5099183;28;20453;-43
2024/03/13 00:14:50;;;;;;;5.33;4.73;;;9.00;1.00;;;;;;5099960;28;20417;-41
2024/03/13 00:17:20;;;;;;;5.03;4.17;;;9.00;1.00;;;;;;5099596;28;20427;-41
2024/03/13 00:19:54;;;;;;;4.07;3.67;;;9.00;1.00;;;;;;5098188;28;20493;-41
2024/03/13 00:22:20;;;;;;;4.13;3.73;;;9.00;1.00;;;;;;5098220;28;20930;-42
2024/03/13 00:24:54;;;;;;;4.40;3.23;;;9.00;1.00;;;;;;5099389;28;20500;-43
2024/03/13 00:27:20;;;;;;;4.50;3.57;;;8.90;1.00;;;;;;5099809;28;20935;-41
2024/03/13 00:29:46;;;;;;;5.77;4.37;;;8.90;1.00;;;;;;5099445;28;20437;-41
2024/03/13 00:32:16;;;;;;;4.07;3.63;;;8.90;1.00;;;;;;5082114;28;20422;-41
2024/03/13 00:34:45;;;;;;;3.10;2.70;;;8.90;1.00;;;;;;5098645;28;20434;-40
2024/03/13 00:37:12;;;;;;;3.77;3.10;;;9.30;1.00;;;;;;5098331;28;20438;-41
2024/03/13 00:39:38;;;;;;;6.13;2.50;;;10.00;1.00;;;;;;5098801;28;20422;-39
2024/03/13 00:42:05;;;;;;;4.30;2.20;;;10.90;1.00;;;;;;5097665;28;20425;-41
2024/03/13 00:44:31;;;;;;;2.27;2.07;;;11.70;99.90;;;;;;5098407;28;20169;-39
2024/03/13 00:46:57;;;;;;;2.13;1.73;;;12.40;99.90;;;;;;5097432;28;20509;-40
2024/03/13 00:49:23;;;;;;;3.20;1.73;;;13.00;1.00;;;;;;5081712;28;20491;-41
2024/03/13 00:51:51;;;;;;;2.80;1.80;;;13.50;28.40;;;;;;5098801;28;20491;-41
2024/03/13 00:54:17;;;;;;;2.07;1.87;;;13.70;99.90;;;;;;5096401;28;20457;-40
2024/03/13 00:56:48;;;;;;;3.17;2.00;;;13.30;99.90;;;;;;5078980;28;20790;-41
2024/03/13 00:59:16;;;;;;;2.70;2.13;;;12.90;1.00;;;;;;5097443;28;20481;-44
2024/03/13 01:01:44;;;;;;;5.43;1.80;;;12.30;99.90;;;;;;5098792;28;20515;-42
2024/03/13 01:04:11;;;;;;;2.13;1.80;;;11.80;1.00;;;;;;5099184;28;20431;-43
2024/03/13 01:06:38;;;;;;;2.00;1.70;;;11.30;1.00;;;;;;5118148;28;20924;-43
2024/03/13 01:09:04;;;;;;;2.80;2.00;;;10.90;1.00;;;;;;5119490;28;20402;-42
2024/03/13 01:11:30;;;;;;;2.37;1.83;;;10.50;1.00;;;;;;5118702;28;20530;-40
2024/03/13 01:13:56;;;;;;;1.93;1.73;;;10.30;99.90;;;;;;5084119;28;20483;-46
2024/03/13 01:16:23;;;;;;;2.10;1.90;;;10.00;1.00;;;;;;5101125;28;20502;-41
2024/03/13 01:18:49;;;;;;;1.80;1.30;;;9.80;27.00;;;;;;5100853;28;20531;-44
2024/03/13 01:21:15;;;;;;;2.23;1.97;;;9.70;99.90;;;;;;5100686;28;20657;-43
2024/03/13 01:23:41;;;;;;;3.20;2.00;;;9.60;99.90;;;;;;5119153;28;20410;-42
2024/03/13 01:26:10;;;;;;;1.87;1.63;;;9.40;99.90;;;;;;5119035;28;20461;-41
2024/03/13 01:28:39;;;;;;;2.00;1.57;;;9.40;1.00;;;;;;5100655;28;20464;-41
2024/03/13 01:31:07;;;;;;;2.10;1.70;;;9.30;1.00;;;;;;5099555;28;20465;-41
2024/03/13 01:33:33;;;;;;;2.10;1.53;;;9.20;1.00;;;;;;5100834;28;20422;-43
2024/03/13 01:35:59;;;;;;;2.47;1.83;;;9.20;1.00;;;;;;5100486;28;20413;-40
2024/03/13 01:38:26;;;;;;;2.00;1.67;;;9.10;1.00;;;;;;5118644;28;20557;-41
2024/03/13 01:55:09;;;;;;;1.53;1.20;;;8.90;1.00;;;;;;5103376;28;20428;-41
2024/03/13 01:57:56;;;;;;;1.97;1.73;;;8.90;1.00;;;;;;5118395;28;20598;-42
2024/03/13 02:03:08;;;;;;;2.07;1.73;;;8.90;1.00;;;;;;5117890;28;20517;-41
2024/03/13 02:05:38;;;;;;;1.97;1.57;;;8.90;1.00;;;;;;5118359;28;20401;-40
2024/03/13 02:08:08;;;;;;;1.50;1.20;;;8.90;1.00;;;;;;5099783;28;20496;-42
2024/03/13 02:10:34;;;;;;;4.50;1.60;;;8.90;1.00;;;;;;5118174;28;20430;-40
2024/03/13 02:13:09;;;;;;;1.53;1.30;;;8.90;1.00;;;;;;5118452;28;20417;-41
2024/03/13 02:15:35;;;;;;;2.50;1.47;;;8.90;1.00;;;;;;5099545;28;20456;-42
2024/03/13 02:18:01;;;;;;;2.77;1.60;;;8.90;1.00;;;;;;5082167;28;20796;-40
2024/03/13 02:20:43;;;;;;;1.20;1.10;;;8.90;1.00;;;;;;5101721;28;20444;-41
2024/03/13 02:23:08;;;;;;;1.93;1.17;;;8.90;1.00;;;;;;5118294;28;20452;-42
2024/03/13 02:25:34;;;;;;;2.20;1.40;;;8.90;1.00;;;;;;5100720;28;20486;-43
2024/03/13 02:28:00;;;;;;;1.50;1.13;;;8.90;1.00;;;;;;5100463;28;20526;-44
2024/03/13 02:30:27;;;;;;;1.30;1.00;;;8.90;1.00;;;;;;5118592;28;20240;-41
2024/03/13 02:32:53;;;;;;;1.40;1.07;;;8.90;1.00;;;;;;5100444;28;20412;-42
2024/03/13 02:35:19;;;;;;;2.97;1.47;;;8.90;1.00;;;;;;5117772;28;20580;-42
2024/03/13 02:37:44;;;;;;;1.97;1.37;;;8.90;1.00;;;;;;5117065;28;20436;-44
2024/03/13 02:40:13;;;;;;;1.20;0.90;;;8.80;1.00;;;;;;5117726;28;20527;-42
2024/03/13 02:42:38;;;;;;;1.30;0.90;;;8.80;1.00;;;;;;5099015;28;20236;-41
2024/03/13 02:45:05;;;;;;;1.70;1.33;;;8.80;1.00;;;;;;5121497;28;20787;-41
2024/03/13 02:47:31;;;;;;;1.47;1.00;;;8.80;1.00;;;;;;5121929;28;20207;-42
2024/03/13 02:49:57;;;;;;;1.60;0.80;;;8.80;4.50;;;;;;5120993;28;20571;-43
2024/03/13 02:52:26;;;;;;;1.07;0.67;;;8.80;1.70;;;;;;5122042;28;20531;-41
2024/03/13 02:54:51;;;;;;;1.80;1.00;;;8.80;2.50;;;;;;5121852;28;20183;-41
2024/03/13 02:57:18;;;;;;;1.20;0.93;;;8.80;7.20;;;;;;5121609;28;20495;-41
2024/03/13 02:59:44;;;;;;;1.63;1.00;;;8.80;16.20;;;;;;5121701;28;20460;-42
2024/03/13 03:02:10;;;;;;;1.00;0.70;;;8.70;19.60;;;;;;5121905;28;20680;-41
2024/03/13 03:04:36;;;;;;;1.63;0.90;;;8.80;20.30;;;;;;5103723;28;20433;-41
2024/03/13 03:07:02;;;;;;;1.27;0.67;;;8.70;26.90;;;;;;5103703;28;20332;-42
2024/03/13 03:09:27;;;;;;;2.27;1.00;;;8.70;29.30;;;;;;5103566;28;20453;-43
2024/03/13 03:11:53;;;;;;;1.47;1.07;;;8.70;28.50;;;;;;5121603;28;20176;-42
2024/03/13 03:14:20;;;;;;;1.27;0.90;;;8.70;37.60;;;;;;5120987;28;20191;-41
2024/03/13 03:16:46;;;;;;;1.23;0.80;;;8.70;49.00;;;;;;5121274;28;20211;-40
2024/03/13 03:19:11;;;;;;;1.90;1.20;;;8.70;56.00;;;;;;5102423;28;20692;-42
2024/03/13 03:21:37;;;;;;;1.53;1.00;;;8.70;76.00;;;;;;5121190;28;20430;-44
2024/03/13 03:24:04;;;;;;;1.10;0.77;;;8.70;86.80;;;;;;5120889;28;20191;-42
2024/03/13 03:26:30;;;;;;;1.63;1.00;;;8.60;95.90;;;;;;5122114;28;20867;-42
2024/03/13 03:28:58;;;;;;;1.20;1.00;;;8.70;99.90;;;;;;5121337;28;20560;-42
2024/03/13 03:31:24;;;;;;;1.73;1.30;;;8.70;99.90;;;;;;5120197;28;20186;-42
2024/03/13 03:33:51;;;;;;;1.50;1.00;;;8.70;99.50;;;;;;5121207;28;20421;-41
2024/03/13 03:36:18;;;;;;;1.53;1.40;;;8.70;96.30;;;;;;5120956;28;20211;-43
2024/03/13 03:38:44;;;;;;;1.53;1.10;;;8.60;99.90;;;;;;5120708;28;20453;-41
2024/03/13 03:41:10;;;;;;;3.10;0.97;;;8.60;99.90;;;;;;5120619;28;20424;-44
2024/03/13 03:43:37;;;;;;;1.67;1.20;;;8.60;99.90;;;;;;5120336;28;20433;-44
2024/03/13 03:46:03;;;;;;;0.97;0.80;;;8.60;99.90;;;;;;5120571;28;20956;-43
2024/03/13 03:48:30;;;;;;;1.53;1.03;;;8.60;99.90;;;;;;5119850;28;20437;-42
2024/03/13 03:50:55;;;;;;;1.60;1.20;;;8.60;99.90;;;;;;5119486;28;20417;-44
2024/03/13 03:54:17;;;;;;;1.00;0.83;;;8.60;99.90;;;;;;5120367;28;20417;-44
2024/03/13 03:56:43;;;;;;;1.30;1.00;;;8.60;99.90;;;;;;5120287;28;20183;-46
2024/03/13 03:59:08;;;;;;;2.50;1.10;;;8.60;99.90;;;;;;5119886;28;20473;-41
2024/03/13 04:01:35;;;;;;;1.13;0.73;;;8.60;99.90;;;;;;5119928;28;20532;-42
2024/03/13 04:04:03;;;;;;;1.10;0.80;;;8.60;99.90;;;;;;5119551;28;20171;-44
2024/03/13 04:06:29;;;;;;;1.00;0.70;;;8.60;99.90;;;;;;5119930;28;20537;-41
2024/03/13 04:08:55;;;;;;;1.30;0.77;;;8.60;99.90;;;;;;5119733;28;20417;-43
2024/03/13 04:11:21;;;;;;;1.30;1.00;;;8.60;99.90;;;;;;5120086;28;20474;-42
2024/03/13 04:13:46;;;;;;;1.20;1.00;;;8.60;99.90;;;;;;5119892;28;20187;-42
2024/03/13 04:16:16;;;;;;;1.50;1.00;;;8.60;99.90;;;;;;5119864;28;20184;-41
2024/03/13 04:18:43;;;;;;;1.70;0.90;;;8.60;99.90;;;;;;5101376;28;20678;-42
2024/03/13 04:21:09;;;;;;;1.57;1.10;;;8.70;99.90;;;;;;5119657;28;20854;-43
2024/03/13 04:23:34;;;;;;;1.17;0.97;;;8.60;99.90;;;;;;5083356;28;20439;-42
2024/03/13 04:26:03;;;;;;;2.40;1.10;;;8.60;99.90;;;;;;5118408;28;20426;-42
2024/03/13 04:28:29;;;;;;;1.33;0.90;;;8.70;99.90;;;;;;5118298;28;20194;-42
2024/03/13 04:30:54;;;;;;;1.00;0.80;;;8.70;99.90;;;;;;5117975;28;20470;-41
2024/03/13 04:33:20;;;;;;;1.57;0.90;;;8.70;99.90;;;;;;5118147;28;20195;-41
2024/03/13 04:35:46;;;;;;;1.33;0.83;;;8.70;99.90;;;;;;5118714;28;20190;-42
2024/03/13 04:38:15;;;;;;;1.20;0.97;;;8.70;99.90;;;;;;5119646;28;20180;-42
2024/03/13 04:40:44;;;;;;;1.20;0.80;;;8.70;99.90;;;;;;5119264;28;20461;-41
2024/03/13 04:43:10;;;;;;;2.37;1.00;;;8.70;99.90;;;;;;5101675;28;20465;-42
2024/03/13 04:45:36;;;;;;;1.27;0.97;;;8.70;99.90;;;;;;5118801;28;20421;-43
2024/03/13 04:48:05;;;;;;;1.33;0.80;;;8.70;99.90;;;;;;5118409;28;20262;-42
2024/03/13 04:50:33;;;;;;;1.27;0.93;;;8.70;99.90;;;;;;5118181;28;20816;-42
2024/03/13 04:52:59;;;;;;;1.20;0.80;;;8.70;99.90;;;;;;5118123;28;20436;-42
2024/03/13 04:55:25;;;;;;;1.10;0.80;;;8.70;99.90;;;;;;5118185;28;20449;-42
2024/03/13 04:57:52;;;;;;;1.17;0.90;;;8.70;99.90;;;;;;5099311;28;20235;-43
2024/03/13 05:00:17;;;;;;;0.90;0.70;;;8.70;99.90;;;;;;5100186;28;20417;-43
2024/03/13 05:02:43;;;;;;;1.10;0.80;;;8.70;99.90;;;;;;5100287;28;20452;-41
2024/03/13 05:05:12;;;;;;;1.27;0.80;;;8.70;99.90;;;;;;5118102;28;20450;-43
2024/03/13 05:07:39;;;;;;;1.37;0.80;;;8.70;99.90;;;;;;5117770;28;20200;-43
2024/03/13 05:10:06;;;;;;;1.53;0.93;;;8.70;99.90;;;;;;5117461;28;21130;-43
2024/03/13 05:12:36;;;;;;;1.10;0.90;;;8.70;99.90;;;;;;5117942;28;20458;-43
2024/03/13 05:15:06;;;;;;;1.20;0.97;;;8.80;99.90;;;;;;5117568;28;20474;-45
2024/03/13 05:17:34;;;;;;;1.43;1.10;;;8.80;99.90;;;;;;5099825;28;20460;-42
2024/03/13 05:20:00;;;;;;;1.00;0.70;;;8.80;99.90;;;;;;5117046;28;20409;-43
2024/03/13 05:22:32;;;;;;;1.00;0.80;;;8.80;99.90;;;;;;5099388;28;20433;-43
2024/03/13 05:24:58;;;;;;;1.20;1.00;;;8.80;99.90;;;;;;5100487;28;20451;-44
2024/03/13 05:27:24;;;;;;;1.13;1.03;;;8.80;99.90;;;;;;5118273;28;20881;-43
2024/03/13 05:29:50;;;;;;;1.33;1.00;;;8.80;99.90;;;;;;5118622;28;20509;-42
2024/03/13 05:32:16;;;;;;;1.30;1.13;;;8.80;99.90;;;;;;5118363;28;20929;-43
2024/03/13 05:34:42;;;;;;;1.63;0.80;;;8.80;99.90;;;;;;5118778;28;20549;-42
2024/03/13 05:37:12;;;;;;;1.77;1.13;;;8.80;99.90;;;;;;5118147;28;20213;-42
2024/03/13 05:39:37;;;;;;;1.50;1.27;;;8.80;99.90;;;;;;5117927;28;20557;-42
2024/03/13 05:42:03;;;;;;;1.33;1.20;;;8.90;99.90;;;;;;5117884;28;20426;-43
2024/03/13 05:44:29;;;;;;;1.40;1.00;;;8.90;99.90;;;;;;5118185;28;20260;-42
2024/03/13 05:46:54;;;;;;;1.17;0.77;;;8.90;99.90;;;;;;5116308;28;20225;-42
2024/03/13 05:49:20;;;;;;;1.60;1.17;;;8.90;99.90;;;;;;5099953;28;20187;-42
2024/03/13 05:51:47;;;;;;;1.60;1.20;;;8.90;99.90;;;;;;5118667;28;20179;-42
2024/03/13 05:54:13;;;;;;;1.30;0.90;;;8.90;99.90;;;;;;5099450;28;20207;-41
2024/03/13 05:56:39;;;;;;;1.10;0.97;;;8.90;99.90;;;;;;5115946;28;20468;-42
2024/03/13 05:59:05;;;;;;;14.70;5.10;;;8.90;99.90;;;;;;5115495;28;20572;-43
2024/03/13 06:01:32;;;;;;;13.23;5.53;;;9.20;1.00;;;;;;5115169;28;20213;-45
2024/03/13 06:03:59;;;;;;;11.93;5.17;;;10.10;1.00;;;;;;5097727;28;20512;-42
2024/03/13 06:06:25;;;;;;;10.40;3.83;;;10.90;1.00;;;;;;5115747;28;20461;-45
2024/03/13 06:08:51;;;;;;;12.97;6.20;;;11.70;1.00;;;;;;5097425;28;20704;-43
2024/03/13 06:11:19;;;;;;;14.00;6.67;;;12.40;1.00;;;;;;5115805;28;20433;-45
2024/03/13 06:13:45;;;;;;;17.77;11.33;;;13.10;99.90;;;;;;5116195;28;20589;-42
2024/03/13 06:16:11;;;;;;;15.40;9.90;;;13.60;99.90;;;;;;5115759;28;20854;-43
2024/03/13 06:18:37;;;;;;;8.37;5.47;;;13.90;1.00;;;;;;5118798;28;20418;-44
2024/03/13 06:21:04;;;;;;;4.70;3.93;;;13.70;99.90;;;;;;5120080;28;20212;-42
2024/03/13 06:23:30;;;;;;;4.90;3.10;;;13.30;11.90;;;;;;5102254;28;20292;-41
2024/03/13 06:25:58;;;;;;;7.13;2.83;;;12.90;1.00;;;;;;5120163;28;20433;-42
2024/03/13 06:31:08;;;;;;;2.60;2.00;;;12.00;1.00;;;;;;5118375;28;20509;-42
2024/03/13 06:33:33;;;;;;;2.60;1.90;;;11.70;1.00;;;;;;5101387;28;20459;-44
2024/03/13 06:36:00;;;;;;;5.23;1.70;;;11.40;65.10;;;;;;5119932;28;20183;-43
2024/03/13 06:38:25;;;;;;;2.27;1.83;;;11.20;99.90;;;;;;5101292;28;20288;-41
2024/03/13 06:40:51;;;;;;;2.50;1.53;;;11.00;99.90;;;;;;5100294;28;20875;-41
2024/03/13 06:43:17;;;;;;;1.70;1.47;;;10.80;99.90;;;;;;5119462;28;20211;-41
2024/03/13 06:45:45;;;;;;;2.43;1.70;;;10.70;99.90;;;;;;5118098;28;20205;-41
2024/03/13 06:48:12;;;;;;;2.20;1.70;;;10.60;1.00;;;;;;5117698;28;20268;-42
2024/03/13 06:50:38;;;;;;;1.60;1.50;;;10.50;1.00;;;;;;5119699;28;20800;-42
2024/03/13 06:53:05;;;;;;;2.90;1.40;;;10.40;1.00;;;;;;5100946;28;20513;-42
2024/03/13 06:55:31;;;;;;;7.07;1.47;;;10.40;1.00;;;;;;5119508;28;20470;-44
2024/03/13 06:57:56;;;;;;;1.60;1.50;;;10.30;1.00;;;;;;5118829;28;20712;-43
2024/03/13 07:00:22;;;;;;;2.10;1.77;;;10.30;1.00;;;;;;5119278;28;20175;-42
2024/03/13 07:02:48;;;;;;;2.00;1.60;;;10.20;1.00;;;;;;5101157;28;20184;-41
2024/03/13 07:05:17;;;;;;;1.70;1.60;;;10.20;1.00;;;;;;5119126;28;20572;-42
2024/03/13 07:07:44;;;;;;;1.60;1.40;;;10.20;1.00;;;;;;5118274;28;20465;-40
2024/03/13 07:10:10;;;;;;;1.97;1.23;;;10.20;1.00;;;;;;5119631;28;20436;-41
2024/03/13 07:12:37;;;;;;;1.70;1.60;;;10.30;1.00;;;;;;5100101;28;20826;-41
2024/03/13 07:15:05;;;;;;;2.10;1.40;;;10.30;1.00;;;;;;5100937;28;20183;-42
2024/03/13 07:17:31;;;;;;;1.60;1.50;;;10.30;1.00;;;;;;5119660;28;20532;-41
2024/03/13 07:19:56;;;;;;;1.40;1.30;;;10.30;1.00;;;;;;5118884;28;20627;-41
2024/03/13 07:22:23;;;;;;;1.90;1.60;;;10.40;1.00;;;;;;5118523;28;20180;-42
2024/03/13 07:24:49;;;;;;;1.60;1.50;;;10.40;1.00;;;;;;5101562;28;20270;-42
2024/03/13 07:27:15;;;;;;;2.27;2.00;;;10.40;1.00;;;;;;5119860;28;20564;-43
2024/03/13 07:29:40;;;;;;;2.23;2.00;;;10.40;1.00;;;;;;5101719;28;20179;-42
2024/03/13 07:32:06;;;;;;;3.03;2.77;;;10.50;1.00;;;;;;5119150;28;20432;-42
2024/03/13 07:34:32;;;;;;;4.60;3.70;;;10.50;1.00;;;;;;5120483;28;20199;-43
2024/03/13 07:36:58;;;;;;;4.57;3.20;;;10.60;1.00;;;;;;5119268;28;20560;-41
2024/03/13 07:39:25;;;;;;;5.83;4.50;;;10.60;1.00;;;;;;5119313;28;20179;-41
2024/03/13 07:41:52;;;;;;;6.20;4.80;;;10.70;1.00;;;;;;5116606;28;20430;-42
2024/03/13 07:44:17;;;;;;;5.03;4.27;;;10.70;1.00;;;;;;5117677;28;20433;-43
2024/03/13 07:46:43;;;;;;;4.50;3.13;;;10.80;1.00;;;;;;5116713;28;21030;-41
2024/03/13 07:49:08;;;;;;;3.27;2.97;;;10.80;1.00;;;;;;5116652;28;20532;-42
2024/03/13 07:51:34;;;;;;;3.13;2.53;;;10.90;1.00;;;;;;5101148;28;20175;-43
2024/03/13 07:54:01;;;;;;;3.60;2.50;;;10.90;1.00;;;;;;5118917;28;20204;-43
2024/03/13 07:56:27;;;;;;;2.77;2.13;;;10.90;1.00;;;;;;5119385;28;20183;-44
2024/03/13 07:58:53;;;;;;;1.90;1.60;;;11.00;1.00;;;;;;5099646;28;20469;-46
2024/03/13 08:01:18;;;;;;;2.47;1.70;;;11.00;1.00;;;;;;5100878;28;20179;-42
2024/03/13 08:03:45;;;;;;;1.53;1.20;;;11.10;1.00;;;;;;5118808;28;20179;-43
2024/03/13 08:06:10;;;;;;;1.43;1.30;;;11.20;1.00;;;;;;5100765;28;20680;-45
2024/03/13 08:08:36;;;;;;;1.30;0.80;;;11.20;1.00;;;;;;5117642;28;20538;-41
2024/03/13 08:11:01;;;;;;;1.10;0.90;;;11.20;1.00;;;;;;5117727;28;20179;-42
2024/03/13 08:13:28;;;;;;;1.13;0.70;;;11.30;1.00;;;;;;5117352;28;20172;-42
2024/03/13 08:15:53;;;;;;;0.97;0.60;;;11.30;1.00;;;;;;5119190;28;20560;-43
2024/03/13 08:18:21;;;;;;;1.00;0.50;;;11.30;1.00;;;;;;5118569;28;20174;-42
2024/03/13 08:20:48;;;;;;;1.00;0.50;;;11.30;1.00;;;;;;5117170;28;20259;-44
2024/03/13 08:23:14;;;;;;;0.90;0.60;;;11.30;1.00;;;;;;5118352;28;20472;-42
2024/03/13 08:25:39;;;;;;;1.30;0.50;;;11.30;1.00;;;;;;5101171;28;20733;-44
2024/03/13 08:28:07;;;;;;;1.73;0.60;;;11.40;1.00;;;;;;5119461;28;20207;-46
2024/03/13 08:30:32;;;;;;;1.73;0.50;;;11.40;1.00;;;;;;5100200;28;20159;-42
2024/03/13 08:32:59;;;;;;;0.80;0.43;;;11.40;1.00;;;;;;5117283;28;20414;-43
2024/03/13 08:35:28;;;;;;;0.80;0.40;;;11.50;1.00;;;;;;5118149;28;20176;-42
2024/03/13 08:37:59;;;;;;;1.00;0.70;;;11.50;1.00;;;;;;5118440;28;20433;-42
2024/03/13 08:40:32;;;;;;;1.30;0.60;;;11.50;1.00;;;;;;5117046;28;20437;-41
2024/03/13 08:42:58;;;;;;;2.40;0.80;;;11.60;99.90;;;;;;5116570;28;20668;-42
2024/03/13 08:45:25;;;;;;;2.77;0.83;;;12.40;1.00;;;;;;5098238;28;20577;-44
2024/03/13 08:47:52;;;;;;;1.73;1.07;;;13.60;1.00;;;;;;5116141;28;20499;-40
2024/03/13 08:50:18;;;;;;;1.67;0.90;;;14.90;99.90;;;;;;5099881;28;20498;-40
2024/03/13 08:52:44;;;;;;;3.23;0.90;;;15.30;1.00;;;;;;5116311;28;20903;-39
2024/03/13 08:55:10;;;;;;;2.30;0.80;;;15.70;1.00;;;;;;5115718;28;20180;-39
2024/03/13 08:57:36;;;;;;;1.90;1.07;;;16.10;99.90;;;;;;5114689;28;20781;-42
2024/03/13 09:00:05;;;;;;;4.60;1.00;;;16.40;1.00;;;;;;5117508;28;20195;-39
2024/03/13 09:02:55;;;;;;;1.80;1.03;;;16.70;36.30;;;;;;5094861;27;20517;-39
2024/03/13 09:05:21;;;;;;;2.03;0.70;;;17.00;1.00;;;;;;5092394;28;20479;-38
2024/03/13 09:07:47;;;;;;;4.10;0.73;;;17.20;1.00;;;;;;5093164;28;20415;-39
2024/03/13 09:10:12;;;;;;;2.07;0.70;;;17.40;1.00;;;;;;5091021;28;20438;-38
2024/03/13 09:12:39;;;;;;;1.30;0.70;;;17.50;63.60;;;;;;5092890;28;20180;-38
2024/03/13 09:15:05;;;;;;;1.20;0.70;;;17.60;1.00;;;;;;5093158;28;20177;-40
2024/03/13 09:17:31;;;;;;;1.77;0.70;;;17.70;99.90;;;;;;5093670;28;20491;-42
2024/03/13 09:19:57;;;;;;;1.20;0.70;;;17.80;8.50;;;;;;5093727;28;20817;-40
2024/03/13 09:22:22;;;;;;;0.90;0.53;;;17.50;1.00;;;;;;5093437;28;20477;-41
2024/03/13 09:24:48;;;;;;;1.00;0.60;;;17.10;1.00;;;;;;5092084;28;20287;-43
2024/03/13 09:27:14;;;;;;;2.53;1.03;;;16.70;1.00;;;;;;5091049;28;20186;-42
2024/03/13 09:29:40;;;;;;;2.03;0.60;;;16.30;1.00;;;;;;5090993;28;20172;-41
2024/03/13 09:32:06;;;;;;;1.23;0.83;;;15.90;1.00;;;;;;5093052;28;20181;-41
2024/03/13 09:34:32;;;;;;;1.10;0.80;;;15.60;99.90;;;;;;5077379;28;20440;-44
2024/03/13 09:36:59;;;;;;;0.90;0.57;;;15.30;99.90;;;;;;5092582;28;20725;-41
2024/03/13 09:39:25;;;;;;;1.00;0.77;;;15.10;1.00;;;;;;5093626;28;20458;-43
2024/03/13 09:41:53;;;;;;;1.40;1.17;;;14.80;99.90;;;;;;5094653;28;20494;-44
2024/03/13 09:44:19;;;;;;;1.00;0.60;;;14.70;1.00;;;;;;5091254;28;20241;-41
2024/03/13 09:46:45;;;;;;;1.30;1.03;;;14.50;99.90;;;;;;5092218;28;20419;-43
2024/03/13 09:49:12;;;;;;;1.00;0.70;;;14.40;1.00;;;;;;5092018;28;20449;-43
2024/03/13 09:51:39;;;;;;;1.43;0.90;;;14.40;99.90;;;;;;5091602;28;20623;-43
2024/03/13 09:54:04;;;;;;;1.43;0.90;;;14.40;1.00;;;;;;5093188;28;20419;-43
2024/03/13 09:56:31;;;;;;;2.07;0.90;;;14.50;99.90;;;;;;5092912;28;20867;-42
2024/03/13 09:58:56;;;;;;;1.20;0.93;;;14.60;99.90;;;;;;5094059;28;20457;-43
2024/03/13 10:01:30;;;;;;;2.27;1.00;;;14.60;99.90;;;;;;5093019;28;20478;-42
2024/03/13 10:04:02;;;;;;;1.10;0.60;;;14.70;99.90;;;;;;5091561;28;20187;-42
2024/03/13 10:06:29;;;;;;;1.30;1.00;;;14.70;99.90;;;;;;5092440;28;20419;-41
2024/03/13 10:08:55;;;;;;;1.27;1.07;;;14.60;99.90;;;;;;5092191;28;20502;-41
2024/03/13 10:11:23;;;;;;;1.20;0.90;;;14.70;1.00;;;;;;5091874;28;20849;-44
2024/03/13 10:13:50;;;;;;;1.50;0.83;;;14.70;1.00;;;;;;5080267;28;20427;-44
2024/03/13 10:16:16;;;;;;;2.20;1.20;;;14.70;1.00;;;;;;5077718;28;20433;-42
2024/03/13 10:18:47;;;;;;;1.40;1.20;;;14.80;1.00;;;;;;5080122;28;20518;-41
2024/03/13 10:21:31;;;;;;;2.10;0.97;;;14.90;38.60;;;;;;5078687;28;20455;-42
2024/03/13 10:23:58;;;;;;;1.50;1.10;;;15.00;1.00;;;;;;5061186;28;20500;-40
2024/03/13 10:26:26;;;;;;;1.60;0.93;;;15.10;1.00;;;;;;5062022;28;20438;-42
2024/03/13 10:28:52;;;;;;;1.93;1.27;;;15.10;1.00;;;;;;5079487;28;20496;-43
2024/03/13 10:31:17;;;;;;;1.90;1.30;;;15.20;1.00;;;;;;5079638;28;20521;-43
2024/03/13 10:33:44;;;;;;;1.93;1.30;;;15.30;1.00;;;;;;5078101;28;20518;-42
2024/03/13 10:36:11;;;;;;;1.87;1.40;;;15.30;1.00;;;;;;5079641;28;20181;-42
2024/03/13 10:38:37;;;;;;;1.40;1.23;;;15.30;1.00;;;;;;5079667;28;20446;-44
2024/03/13 10:41:03;;;;;;;1.70;1.23;;;15.40;1.00;;;;;;5079079;28;20479;-42
2024/03/13 10:43:31;;;;;;;1.50;1.10;;;15.40;1.00;;;;;;5079458;28;20427;-42
2024/03/13 10:45:58;;;;;;;1.27;1.00;;;15.40;1.00;;;;;;5078446;28;20419;-44
2024/03/13 10:48:26;;;;;;;1.73;1.37;;;15.40;1.00;;;;;;5077864;28;20407;-43
2024/03/13 10:50:53;;;;;;;1.97;1.30;;;15.40;1.00;;;;;;5078104;28;20486;-43
2024/03/13 10:53:19;;;;;;;2.03;1.20;;;15.50;1.00;;;;;;5077884;28;20731;-43
2024/03/13 10:55:45;;;;;;;1.20;1.00;;;15.50;1.00;;;;;;5078771;28;20430;-44
2024/03/13 10:58:22;;;;;;;1.00;0.87;;;15.50;9.30;;;;;;5077804;28;20558;-42
2024/03/13 11:00:50;;;;;;;1.60;1.27;;;15.50;5.60;;;;;;5077892;28;20485;-43
2024/03/13 11:03:16;;;;;;;3.03;0.80;;;15.40;1.00;;;;;;5078851;28;20810;-42
2024/03/13 11:05:42;;;;;;;1.20;0.67;;;15.50;1.00;;;;;;5078367;28;20410;-43
2024/03/13 11:08:08;;;;;;;1.37;0.60;;;15.90;36.50;;;;;;5077929;28;20563;-41
2024/03/13 11:10:36;;;;;;;1.97;1.10;;;16.30;1.00;;;;;;5079172;28;20192;-41
2024/03/13 11:13:05;;;;;;;1.90;0.60;;;16.70;99.90;;;;;;5078975;28;20468;-41
2024/03/13 11:15:37;;;;;;;1.23;0.50;;;17.00;50.50;;;;;;5078641;28;20428;-42
2024/03/13 11:18:04;;;;;;;1.10;0.67;;;17.30;1.00;;;;;;5075734;28;20462;-41
2024/03/13 11:20:37;;;;;;;1.00;0.70;;;17.50;1.00;;;;;;5076924;28;20439;-41
2024/03/13 11:23:06;;;;;;;1.10;0.80;;;17.40;99.90;;;;;;5061134;28;20504;-41
2024/03/13 11:25:34;;;;;;;1.30;0.97;;;17.10;22.50;;;;;;5059626;28;20497;-43
2024/03/13 11:28:02;;;;;;;4.27;0.90;;;16.80;83.00;;;;;;5078344;28;20702;-45
2024/03/13 11:30:28;;;;;;;2.40;1.27;;;16.60;99.90;;;;;;5077133;28;20423;-43
2024/03/13 11:32:55;;;;;;;2.97;1.50;;;16.30;1.00;;;;;;5078709;28;20502;-44
2024/03/13 11:35:21;;;;;;;2.07;1.27;;;16.10;99.90;;;;;;5060009;28;20517;-42
2024/03/13 11:37:48;;;;;;;1.53;1.17;;;15.90;99.90;;;;;;5073082;28;20454;-44
2024/03/13 11:40:17;;;;;;;2.13;1.00;;;15.80;1.00;;;;;;5072884;28;20450;-42
2024/03/13 11:42:43;;;;;;;1.43;1.10;;;15.70;99.90;;;;;;5073503;28;20428;-41
2024/03/13 11:45:23;;;;;;;1.50;1.20;;;15.60;1.00;;;;;;5058084;28;20686;-41
2024/03/13 11:47:50;;;;;;;1.47;1.10;;;15.60;99.90;;;;;;5057993;28;20396;-41
2024/03/13 11:50:16;;;;;;;1.60;1.17;;;15.60;1.00;;;;;;5058215;28;20511;-41
2024/03/13 11:53:01;;;;;;;1.23;0.80;;;15.80;1.00;;;;;;5072732;28;20483;-41
2024/03/13 11:55:28;;;;;;;1.80;1.00;;;16.10;1.00;;;;;;5056731;28;20186;-41
2024/03/13 11:58:03;;;;;;;1.80;0.90;;;16.50;99.90;;;;;;5071682;28;20420;-42
2024/03/13 12:00:29;;;;;;;1.10;0.80;;;16.70;99.90;;;;;;5054939;28;20487;-42
2024/03/13 12:02:58;;;;;;;1.20;0.80;;;16.90;1.00;;;;;;5054564;28;20428;-41
2024/03/13 12:05:41;;;;;;;1.00;0.50;;;16.90;10.00;;;;;;5068955;28;20436;-42
2024/03/13 12:08:10;;;;;;;2.50;0.70;;;16.90;39.50;;;;;;5051567;28;20431;-41
2024/03/13 12:10:36;;;;;;;1.47;0.53;;;16.90;1.00;;;;;;5069744;28;20447;-41
2024/03/13 12:13:02;;;;;;;1.13;0.60;;;16.90;1.00;;;;;;5070462;28;20446;-43
2024/03/13 12:15:27;;;;;;;1.10;0.60;;;17.00;1.00;;;;;;5070426;28;20432;-43
2024/03/13 12:17:56;;;;;;;1.20;0.60;;;17.10;1.00;;;;;;5053956;28;20192;-44
2024/03/13 12:20:22;;;;;;;1.20;0.80;;;17.30;99.90;;;;;;5050978;28;20579;-42
2024/03/13 12:22:49;;;;;;;1.00;0.50;;;17.60;1.00;;;;;;5053477;28;20836;-42
2024/03/13 12:25:15;;;;;;;1.00;0.50;;;17.80;99.90;;;;;;5053652;28;20495;-43
2024/03/13 12:27:49;;;;;;;1.90;0.60;;;18.10;1.00;;;;;;5056367;28;20521;-41
2024/03/13 12:30:18;;;;;;;1.13;0.53;;;18.40;15.50;;;;;;5054402;28;20428;-43
2024/03/13 12:32:45;;;;;;;0.90;0.50;;;18.50;1.00;;;;;;5055388;28;20455;-43
2024/03/13 12:35:11;;;;;;;1.60;0.50;;;18.60;99.90;;;;;;5056531;28;20439;-43
2024/03/13 12:37:37;;;;;;;1.00;0.50;;;18.50;99.90;;;;;;5072409;28;20432;-42
2024/03/13 12:40:08;;;;;;;1.50;0.60;;;18.60;99.90;;;;;;5055537;28;20713;-44
2024/03/13 12:42:37;;;;;;;1.00;0.50;;;18.60;99.90;;;;;;5070374;28;20636;-42
2024/03/13 12:45:04;;;;;;;1.17;0.50;;;18.60;99.90;;;;;;5071531;28;20644;-42
2024/03/13 12:47:31;;;;;;;3.07;0.50;;;18.70;40.50;;;;;;5056704;28;20477;-43
2024/03/13 12:49:56;;;;;;;1.00;0.50;;;18.70;40.30;;;;;;5072199;28;20729;-43
2024/03/13 12:52:22;;;;;;;1.30;0.50;;;18.70;1.00;;;;;;5056589;28;20442;-42
2024/03/13 12:54:48;;;;;;;0.90;0.50;;;18.70;1.00;;;;;;5055109;28;20522;-41
2024/03/13 12:57:16;;;;;;;0.97;0.47;;;18.60;1.00;;;;;;5054696;28;20428;-41
2024/03/13 12:59:52;;;;;;;1.00;0.50;;;18.40;1.00;;;;;;5053437;28;20276;-44
2024/03/13 13:02:18;;;;;;;1.00;0.50;;;18.20;57.40;;;;;;5052854;28;20903;-43
2024/03/13 13:04:45;;;;;;;0.80;0.50;;;17.90;99.90;;;;;;5054864;28;20493;-43
2024/03/13 13:07:13;;;;;;;1.00;0.60;;;17.60;99.90;;;;;;5054241;28;20862;-42
2024/03/13 13:09:38;;;;;;;2.30;0.70;;;17.40;1.00;;;;;;5070293;28;20833;-44
2024/03/13 13:12:06;;;;;;;0.97;0.50;;;17.10;22.70;;;;;;5054062;28;20412;-44
2024/03/13 13:14:31;;;;;;;1.00;0.70;;;16.90;99.90;;;;;;5070064;28;20474;-44
2024/03/13 13:16:57;;;;;;;1.00;0.50;;;16.80;1.00;;;;;;5055735;28;20443;-42